»·PEaware :: SWA1441 KSAN-KSFO

SWA1441 :: KSAN-KSFO

FLIGHT INFORMATION

Flight Status: Arrived
Operator:
Southwest Airlines
More flights by this operator :: More flights under this callsign
Pilot: Ben F. (2808)
Aircraft: BOEING 737-800
(B738)
More flights by this aircraft type
Origin: KSAN San Diego Intl-Lindbergh
United States
Destination: KSFO San Francisco Intl
United States
More flights between these airports :: More routes between these airports
Route: PADRZ2 IKAYE RIZIN SPLNT STOKD SERFR SERFR2
File this flight plan on PilotEdge
Remarks: PBN / A1B1C1D1S1S2 NAV / RNVD1E2A1 REG / N501EA EET / KZOA0039 RMK / SIMBRIEF
Altitude:
(Current/Filed)
36,000ft
Speed:
(Current/Filed)
459kts
Departed: 24-Dec-17 06:55 PM
Arrived: 24-Dec-17 08:02 PM
Distance/Time
Traveled:
388nm/1:07
Distance/Time
To Go:
Arrived

Flight Plot

Page will automatically refresh every two minutes.

Flight plan parsing failed; only flown route is shown


Map Options




Map Legend


Flown Route
Filed Route
Departure Airport
Arrival Airport
Navaid (VOR, NDB)
Fix

Horizontal Profiles

Position Reports

Time Latitude Longitude Heading Altitude Ground
Speed
24-Dec-17 18:37 32.732862 -117.195463 274 22ft 0kts
24-Dec-17 18:38 32.732862 -117.195463 274 22ft 0kts
24-Dec-17 18:39 32.732862 -117.195463 274 22ft 0kts
24-Dec-17 18:40 32.732862 -117.195463 274 23ft 0kts
24-Dec-17 18:41 32.732862 -117.195463 274 23ft 0kts
24-Dec-17 18:42 32.732862 -117.195463 274 23ft 0kts
24-Dec-17 18:43 32.732862 -117.195463 274 23ft 0kts
24-Dec-17 18:44 32.732862 -117.195463 274 23ft 0kts
24-Dec-17 18:45 32.732862 -117.195463 274 23ft 0kts
24-Dec-17 18:46 32.732862 -117.195463 274 23ft 0kts
24-Dec-17 18:47 32.732862 -117.195463 274 23ft 0kts
24-Dec-17 18:48 32.732862 -117.195463 274 23ft 0kts
24-Dec-17 18:49 32.732862 -117.195463 274 23ft 0kts
24-Dec-17 18:50 32.732862 -117.195463 274 23ft 0kts
24-Dec-17 18:51 32.732862 -117.195463 274 23ft 0kts
24-Dec-17 18:52 32.732756 -117.194804 299 23ft 2kts
24-Dec-17 18:53 32.732437 -117.194715 28 23ft 0kts
24-Dec-17 18:54 32.732437 -117.194715 28 23ft 0kts
24-Dec-17 18:55 32.732437 -117.194715 28 23ft 0kts
24-Dec-17 18:56 32.732893 -117.194432 27 22ft 2kts
24-Dec-17 18:57 32.732912 -117.191295 105 23ft 21kts
24-Dec-17 18:58 32.731047 -117.183538 107 23ft 22kts
24-Dec-17 18:59 32.729507 -117.177155 95 23ft 12kts
24-Dec-17 19:00 32.729651 -117.176330 71 23ft 12kts
24-Dec-17 19:01 32.735019 -117.195688 286 132ft 163kts
24-Dec-17 19:02 32.757771 -117.246247 304 2739ft 211kts
24-Dec-17 19:03 32.795391 -117.311392 304 5303ft 248kts
24-Dec-17 19:04 32.839899 -117.380837 306 8165ft 279kts
24-Dec-17 19:05 32.887828 -117.455152 306 11296ft 298kts
24-Dec-17 19:06 32.944114 -117.542645 306 12968ft 356kts
24-Dec-17 19:07 33.005167 -117.637898 305 15650ft 368kts
24-Dec-17 19:08 33.069961 -117.734778 312 18080ft 382kts
24-Dec-17 19:09 33.151619 -117.819762 312 20251ft 393kts
24-Dec-17 19:10 33.228768 -117.914171 310 22167ft 403kts
24-Dec-17 19:11 33.307525 -118.011880 310 23872ft 411kts
24-Dec-17 19:12 33.387473 -118.111413 310 25328ft 421kts
24-Dec-17 19:13 33.469712 -118.213428 310 26685ft 429kts
24-Dec-17 19:14 33.553400 -118.317763 310 27925ft 437kts
24-Dec-17 19:15 33.631292 -118.415236 310 28964ft 443kts
24-Dec-17 19:16 33.716511 -118.522229 309 30400ft 441kts
24-Dec-17 19:17 33.797779 -118.624577 309 31749ft 439kts
24-Dec-17 19:18 33.875068 -118.722199 309 32945ft 439kts
24-Dec-17 19:19 33.953009 -118.820923 309 34150ft 437kts
24-Dec-17 19:20 34.033337 -118.922948 308 35793ft 423kts
24-Dec-17 19:21 34.112359 -119.023635 308 36167ft 426kts
24-Dec-17 19:22 34.193505 -119.127327 308 36163ft 423kts
24-Dec-17 19:23 34.274219 -119.230772 308 36160ft 423kts
24-Dec-17 19:24 34.354812 -119.334381 307 36164ft 423kts
24-Dec-17 19:25 34.435616 -119.438562 307 36166ft 423kts
24-Dec-17 19:26 34.516007 -119.542523 307 36170ft 422kts
24-Dec-17 19:27 34.596475 -119.646904 307 36169ft 422kts
24-Dec-17 19:28 34.676584 -119.751131 307 36166ft 422kts
24-Dec-17 19:29 34.756461 -119.855373 307 36186ft 421kts
24-Dec-17 19:30 34.836356 -119.959958 307 36192ft 420kts
24-Dec-17 19:31 34.914422 -120.062451 306 36199ft 420kts
24-Dec-17 19:32 34.967501 -120.132323 306 36210ft 418kts
24-Dec-17 19:33 35.045922 -120.235809 306 36211ft 417kts
24-Dec-17 19:34 35.124890 -120.340333 306 36211ft 416kts
24-Dec-17 19:35 35.203413 -120.444580 306 36211ft 415kts
24-Dec-17 19:36 35.281599 -120.548409 306 36211ft 415kts
24-Dec-17 19:37 35.358253 -120.650400 305 36211ft 414kts
24-Dec-17 19:38 35.436163 -120.754793 305 36213ft 414kts
24-Dec-17 19:39 35.518877 -120.851127 315 36216ft 422kts
24-Dec-17 19:40 35.612692 -120.938202 315 36217ft 423kts
24-Dec-17 19:41 35.699709 -121.019306 315 36223ft 422kts
24-Dec-17 19:42 35.793325 -121.106588 315 36121ft 423kts
24-Dec-17 19:43 35.886697 -121.193615 315 33550ft 421kts
24-Dec-17 19:44 35.979668 -121.281031 315 31081ft 415kts
24-Dec-17 19:45 36.069768 -121.365841 316 29077ft 402kts
24-Dec-17 19:46 36.163675 -121.439729 320 27133ft 394kts
24-Dec-17 19:47 36.255685 -121.510925 320 25224ft 387kts
24-Dec-17 19:48 36.345929 -121.581465 320 23333ft 381kts
24-Dec-17 19:49 36.433478 -121.650384 319 21489ft 375kts
24-Dec-17 19:50 36.520055 -121.718600 319 19835ft 359kts
24-Dec-17 19:51 36.602978 -121.784101 319 18121ft 345kts
24-Dec-17 19:52 36.682412 -121.847205 319 16361ft 336kts
24-Dec-17 19:53 36.765356 -121.900882 337 14629ft 341kts
24-Dec-17 19:54 36.857203 -121.926610 341 13229ft 334kts
24-Dec-17 19:55 36.946668 -121.951512 341 11884ft 326kts
24-Dec-17 19:56 37.026392 -121.981433 337 11368ft 276kts
24-Dec-17 19:57 37.100473 -122.010832 339 9522ft 275kts
24-Dec-17 19:58 37.172323 -122.039078 341 8394ft 267kts
24-Dec-17 19:59 37.242743 -122.066741 341 7307ft 263kts
24-Dec-17 20:00 37.311779 -122.093913 341 6237ft 259kts
24-Dec-17 20:01 37.379867 -122.120837 341 5229ft 255kts
24-Dec-17 20:02 37.446427 -122.146856 341 4263ft 244kts
24-Dec-17 20:03 37.504794 -122.165281 346 3477ft 221kts
24-Dec-17 20:04 37.545814 -122.203230 301 2719ft 172kts
24-Dec-17 20:05 37.567480 -122.253009 297 1870ft 158kts
24-Dec-17 20:06 37.588225 -122.302351 297 1020ft 157kts
24-Dec-17 20:07 37.608141 -122.349752 297 203ft 147kts
24-Dec-17 20:08 37.618978 -122.376954 272 21ft 13kts
24-Dec-17 20:09 37.617203 -122.379455 186 21ft 13kts
24-Dec-17 20:10 37.613811 -122.381492 207 21ft 9kts
24-Dec-17 20:11 37.611407 -122.384160 273 21ft 12kts
24-Dec-17 20:12 37.612248 -122.384180 48 21ft 0kts
24-Dec-17 20:13 37.612248 -122.384180 48 21ft 0kts

Navigation Log

Ident Type
Flight plan parsing failed, navigation log unavailable